createdAt,value
2022-08-17T00:01:27.243Z,26.58
2022-08-17T00:03:54.599Z,27.10
2022-08-17T00:06:24.894Z,30.55
2022-08-17T00:09:02.098Z,27.25
2022-08-17T00:11:35.979Z,28.35
2022-08-17T00:14:06.561Z,29.13
2022-08-17T00:16:50.518Z,29.92
2022-08-17T00:19:25.610Z,32.67
2022-08-17T00:22:29.540Z,27.33
2022-08-17T00:24:42.450Z,33.63
2022-08-17T00:27:08.881Z,33.85
2022-08-17T00:29:35.290Z,32.15
2022-08-17T00:33:14.245Z,36.97
2022-08-17T00:34:49.979Z,30.08
2022-08-17T00:37:16.722Z,30.60
2022-08-17T00:39:43.213Z,33.80
2022-08-17T00:42:15.339Z,32.20
2022-08-17T00:44:41.761Z,32.90
2022-08-17T00:47:08.287Z,33.53
2022-08-17T00:49:34.703Z,39.42
2022-08-17T00:52:11.783Z,38.40
2022-08-17T00:54:42.480Z,35.97
2022-08-17T00:57:31.133Z,32.60
2022-08-17T01:00:04.988Z,33.78
2022-08-17T01:02:43.017Z,34.80
2022-08-17T01:05:25.429Z,37.13
2022-08-17T01:07:52.964Z,44.83
2022-08-17T01:10:58.384Z,54.08
2022-08-17T01:13:16.127Z,46.35
2022-08-17T01:16:03.258Z,44.70
2022-08-17T01:18:29.774Z,43.92
2022-08-17T01:20:58.943Z,46.20
2022-08-17T01:23:28.818Z,50.35
2022-08-17T01:25:58.117Z,47.20
2022-08-17T01:28:52.490Z,45.93
2022-08-17T01:33:41.334Z,44.92
2022-08-17T01:36:09.218Z,56.88
2022-08-17T01:38:37.231Z,50.30
2022-08-17T01:41:10.666Z,43.05
2022-08-17T01:43:53.927Z,54.05
2022-08-17T01:46:26.962Z,50.15
2022-08-17T01:48:54.555Z,46.70
2022-08-17T01:51:21.620Z,52.85
2022-08-17T01:53:51.901Z,53.13
2022-08-17T01:56:21.268Z,52.42
2022-08-17T01:58:48.695Z,50.87
2022-08-17T02:01:17.146Z,48.35
2022-08-17T02:03:59.102Z,44.30
2022-08-17T02:06:43.982Z,45.85
2022-08-17T02:09:16.618Z,51.63
2022-08-17T02:11:44.363Z,51.50
2022-08-17T02:14:11.983Z,47.90
2022-08-17T02:16:40.576Z,46.85
2022-08-17T02:19:11.275Z,45.25
2022-08-17T02:21:40.382Z,50.47
2022-08-17T02:24:10.912Z,48.05
2022-08-17T02:26:37.846Z,46.63
2022-08-17T02:29:04.530Z,48.50
2022-08-17T02:31:31.113Z,48.58
2022-08-17T02:34:03.695Z,54.45
2022-08-17T02:36:34.883Z,53.50
2022-08-17T02:39:06.807Z,49.55
2022-08-17T02:41:33.751Z,44.10
2022-08-17T02:44:00.353Z,47.40
2022-08-17T02:46:26.914Z,43.63
2022-08-17T02:48:53.357Z,44.15
2022-08-17T02:51:20.031Z,44.20
2022-08-17T02:53:46.830Z,45.47
2022-08-17T02:56:13.664Z,43.53
2022-08-17T02:58:40.269Z,43.05
2022-08-17T03:01:09.684Z,43.50
2022-08-17T03:03:37.971Z,43.85
2022-08-17T03:06:05.854Z,45.08
2022-08-17T03:08:32.298Z,44.75
2022-08-17T03:10:59.016Z,43.22
2022-08-17T03:13:25.475Z,48.15
2022-08-17T03:15:51.886Z,50.67
2022-08-17T03:18:25.264Z,54.10
2022-08-17T03:21:01.597Z,52.95
2022-08-17T03:23:29.620Z,50.05
2022-08-17T03:25:57.275Z,50.75
2022-08-17T03:28:24.672Z,48.17
2022-08-17T03:30:52.372Z,49.60
2022-08-17T03:33:19.962Z,49.17
2022-08-17T03:35:46.550Z,53.28
2022-08-17T03:38:15.900Z,53.55
2022-08-17T03:40:56.674Z,56.60
2022-08-17T03:43:25.223Z,51.78
2022-08-17T03:46:28.810Z,66.22
2022-08-17T03:49:15.436Z,61.30
2022-08-17T03:52:00.383Z,64.38
2022-08-17T03:54:45.630Z,67.05
2022-08-17T03:57:12.445Z,63.30
2022-08-17T03:59:39.440Z,60.95
2022-08-17T04:02:16.198Z,69.85
2022-08-17T04:04:42.664Z,70.03
2022-08-17T04:07:09.739Z,71.72
2022-08-17T04:09:36.655Z,69.90
2022-08-17T04:12:04.793Z,65.10
2022-08-17T04:14:39.201Z,62.97
2022-08-17T04:17:20.023Z,60.03
2022-08-17T04:19:46.634Z,64.78
2022-08-17T04:22:30.204Z,63.25
2022-08-17T04:24:58.772Z,57.70
2022-08-17T04:27:25.428Z,62.33
2022-08-17T04:29:55.113Z,65.03
2022-08-17T04:33:04.290Z,62.45
2022-08-17T04:35:09.795Z,64.32
2022-08-17T04:37:36.190Z,61.95
2022-08-17T04:40:21.629Z,65.68
2022-08-17T04:43:01.332Z,61.55
2022-08-17T04:47:59.808Z,54.72
2022-08-17T04:50:26.467Z,58.88
2022-08-17T04:52:52.856Z,59.95
2022-08-17T04:55:19.296Z,54.88
2022-08-17T04:57:45.785Z,51.17
2022-08-17T05:00:12.747Z,64.82
2022-08-17T05:02:50.611Z,56.83
2022-08-17T05:05:21.833Z,57.65
2022-08-17T05:07:50.727Z,59.85
2022-08-17T05:10:17.405Z,64.78
2022-08-17T05:12:43.817Z,59.85
2022-08-17T05:15:17.621Z,56.35
2022-08-17T05:17:46.817Z,63.95
2022-08-17T05:20:13.239Z,62.38
2022-08-17T05:22:55.641Z,61.08
2022-08-17T05:25:25.783Z,58.08
2022-08-17T05:27:54.789Z,66.15
2022-08-17T05:30:21.829Z,67.28
2022-08-17T05:32:54.252Z,56.00
2022-08-17T05:35:21.710Z,68.60
2022-08-17T05:37:48.244Z,66.88
2022-08-17T05:40:15.135Z,62.83
2022-08-17T05:42:42.078Z,71.68
2022-08-17T05:45:09.936Z,62.08
2022-08-17T05:47:38.888Z,65.95
2022-08-17T05:50:10.311Z,68.38
2022-08-17T05:53:18.891Z,67.25
2022-08-17T05:56:10.914Z,69.28
2022-08-17T05:59:18.861Z,66.43
2022-08-17T06:01:59.655Z,65.03
2022-08-17T06:05:10.866Z,66.10
2022-08-17T06:08:08.897Z,61.05
2022-08-17T06:11:13.072Z,60.72
2022-08-17T06:13:45.150Z,62.50
2022-08-17T06:16:31.118Z,55.35
2022-08-17T06:19:10.092Z,54.72
2022-08-17T06:21:43.040Z,54.63
2022-08-17T06:24:35.445Z,54.50
2022-08-17T06:27:27.519Z,54.92
2022-08-17T06:30:02.097Z,53.60
2022-08-17T06:32:29.238Z,48.95
2022-08-17T06:34:57.403Z,49.63
2022-08-17T06:37:37.324Z,51.28
2022-08-17T06:40:15.968Z,46.63
2022-08-17T06:43:06.637Z,46.97
2022-08-17T06:45:49.212Z,42.35
2022-08-17T06:48:29.077Z,49.90
2022-08-17T06:51:02.493Z,45.22
2022-08-17T06:53:37.008Z,41.42
2022-08-17T06:56:19.718Z,39.97
2022-08-17T06:58:46.797Z,37.50
2022-08-17T07:01:25.100Z,38.55
2022-08-17T07:04:11.563Z,40.88
2022-08-17T07:06:53.111Z,38.25
2022-08-17T07:09:28.708Z,38.95
2022-08-17T07:12:03.210Z,32.45
2022-08-17T07:15:05.332Z,36.08
2022-08-17T07:17:46.636Z,35.13
2022-08-17T07:20:17.878Z,32.85
2022-08-17T07:23:08.843Z,30.92
2022-08-17T07:25:35.314Z,30.60
2022-08-17T07:28:07.024Z,32.25
2022-08-17T07:30:45.849Z,29.17
2022-08-17T07:33:20.087Z,28.23
2022-08-17T07:35:48.253Z,28.98
2022-08-17T07:38:28.229Z,24.30
2022-08-17T07:41:04.824Z,26.05
2022-08-17T07:43:40.643Z,30.70
2022-08-17T07:46:38.149Z,24.20
2022-08-17T07:49:07.545Z,27.20
2022-08-17T07:51:37.830Z,23.08
2022-08-17T07:54:24.713Z,22.88
2022-08-17T07:57:10.362Z,21.88
2022-08-17T07:59:41.266Z,22.77
2022-08-17T08:02:34.342Z,21.92
2022-08-17T08:05:12.883Z,23.30
2022-08-17T08:07:48.294Z,19.23
2022-08-17T08:10:25.162Z,19.52
2022-08-17T08:13:06.474Z,18.52
2022-08-17T08:15:40.700Z,19.17
2022-08-17T08:18:54.369Z,17.93
2022-08-17T08:21:52.093Z,18.33
2022-08-17T08:24:36.630Z,16.88
2022-08-17T08:27:18.863Z,16.48
2022-08-17T08:30:06.146Z,16.65
2022-08-17T08:32:39.590Z,16.80
2022-08-17T08:35:30.828Z,17.40
2022-08-17T08:38:28.535Z,16.92
2022-08-17T08:41:25.442Z,16.58
2022-08-17T08:44:22.048Z,15.48
2022-08-17T08:47:26.483Z,14.77
2022-08-17T08:50:37.232Z,16.90
2022-08-17T08:53:23.525Z,15.82
2022-08-17T08:56:16.396Z,15.38
2022-08-17T08:59:15.945Z,14.38
2022-08-17T09:05:10.644Z,14.10
2022-08-17T09:08:11.036Z,14.10
2022-08-17T09:10:43.353Z,13.98
2022-08-17T09:13:37.005Z,16.55
2022-08-17T09:16:15.255Z,14.98
2022-08-17T09:19:03.352Z,13.85
2022-08-17T09:22:11.997Z,14.07
2022-08-17T09:24:47.278Z,13.85
2022-08-17T09:27:18.424Z,13.38
2022-08-17T09:29:59.708Z,14.50
2022-08-17T09:32:45.780Z,14.20
2022-08-17T09:35:22.857Z,12.35
2022-08-17T09:38:10.677Z,12.30
2022-08-17T09:40:51.458Z,13.02
2022-08-17T09:43:37.402Z,12.23
2022-08-17T09:46:21.812Z,11.90
2022-08-17T09:49:14.913Z,13.23
2022-08-17T09:51:49.564Z,20.92
2022-08-17T09:54:41.758Z,11.43
2022-08-17T09:57:34.756Z,11.65
2022-08-17T10:00:27.172Z,12.02
2022-08-17T10:03:12.149Z,11.77
2022-08-17T10:05:51.172Z,11.45
2022-08-17T10:09:08.230Z,11.52
2022-08-17T10:12:29.783Z,11.25
2022-08-17T10:14:59.951Z,10.85
2022-08-17T10:17:45.572Z,11.13
2022-08-17T10:20:17.949Z,10.73
2022-08-17T10:23:12.935Z,11.60
2022-08-17T10:26:08.998Z,15.80
2022-08-17T10:28:49.925Z,12.32
2022-08-17T10:31:35.460Z,12.15
2022-08-17T10:34:40.360Z,11.88
2022-08-17T10:37:19.674Z,12.20
2022-08-17T10:39:57.303Z,11.65
2022-08-17T10:42:42.626Z,12.23
2022-08-17T10:45:29.433Z,12.55
2022-08-17T10:48:07.499Z,12.75
2022-08-17T10:50:49.310Z,13.52
2022-08-17T10:53:34.870Z,11.82
2022-08-17T10:56:14.085Z,14.27
2022-08-17T10:58:58.914Z,12.90
2022-08-17T11:01:34.486Z,13.43
2022-08-17T11:04:17.584Z,12.43
2022-08-17T11:06:47.336Z,12.48
2022-08-17T11:12:24.127Z,11.98
2022-08-17T11:15:05.063Z,12.18
2022-08-17T11:17:50.224Z,12.30
2022-08-17T11:20:42.979Z,11.68
2022-08-17T11:23:39.927Z,11.57
2022-08-17T11:26:25.887Z,11.88
2022-08-17T11:28:59.479Z,11.80
2022-08-17T11:31:38.891Z,12.55
2022-08-17T11:34:27.456Z,12.35
2022-08-17T11:37:20.663Z,11.60
2022-08-17T11:40:21.364Z,11.48
2022-08-17T11:42:59.935Z,11.50
2022-08-17T11:45:40.112Z,11.82
2022-08-17T11:48:34.476Z,19.90
2022-08-17T11:51:33.868Z,13.32
2022-08-17T11:54:31.299Z,10.93
2022-08-17T11:56:52.865Z,13.55
2022-08-17T11:59:39.932Z,10.30
2022-08-17T12:02:31.732Z,14.77
2022-08-17T12:05:04.784Z,10.68
2022-08-17T12:10:23.655Z,11.35
2022-08-17T12:12:53.191Z,10.75
2022-08-17T12:15:31.246Z,11.05
2022-08-17T12:17:58.761Z,10.93
2022-08-17T12:20:42.077Z,12.23
2022-08-17T12:23:44.202Z,13.18
2022-08-17T12:26:25.025Z,11.68
2022-08-17T12:28:58.750Z,11.48
2022-08-17T12:31:45.415Z,11.73
2022-08-17T12:34:15.929Z,12.75
2022-08-17T12:36:42.812Z,11.40
2022-08-17T12:39:12.979Z,12.30
2022-08-17T12:41:47.839Z,11.93
2022-08-17T12:44:21.122Z,12.95
2022-08-17T12:47:00.499Z,12.45
2022-08-17T12:52:25.588Z,12.15
2022-08-17T12:55:21.254Z,13.02
2022-08-17T12:57:54.183Z,11.45
2022-08-17T13:00:38.076Z,11.00
2022-08-17T13:03:09.474Z,11.68
2022-08-17T13:05:42.878Z,11.80
2022-08-17T13:08:20.063Z,10.82
2022-08-17T13:11:06.148Z,11.80
2022-08-17T13:13:37.071Z,11.55
2022-08-17T13:16:09.481Z,11.32
2022-08-17T13:18:43.654Z,14.05
2022-08-17T13:21:30.310Z,10.52
2022-08-17T13:24:25.934Z,10.55
2022-08-17T13:26:59.201Z,14.63
2022-08-17T13:29:44.148Z,11.30
2022-08-17T13:32:14.112Z,11.88
2022-08-17T13:34:56.149Z,11.68
2022-08-17T13:37:35.117Z,11.98
2022-08-17T13:40:10.834Z,11.73
2022-08-17T13:42:53.164Z,11.40
2022-08-17T13:45:35.024Z,11.00
2022-08-17T13:48:08.531Z,13.95
2022-08-17T13:50:55.483Z,11.18
2022-08-17T13:53:37.961Z,11.60
2022-08-17T13:56:31.674Z,11.55
2022-08-17T13:59:04.729Z,13.48
2022-08-17T14:01:53.564Z,12.23
2022-08-17T14:04:24.486Z,14.20
2022-08-17T14:06:58.879Z,12.55
2022-08-17T14:09:37.165Z,11.88
2022-08-17T14:12:08.614Z,13.13
2022-08-17T14:14:36.310Z,12.45
2022-08-17T14:17:03.171Z,12.50
2022-08-17T14:19:29.675Z,12.57
2022-08-17T14:21:59.017Z,13.60
2022-08-17T14:24:31.251Z,12.05
2022-08-17T14:26:59.971Z,11.68
2022-08-17T14:29:29.035Z,12.13
2022-08-17T14:31:58.447Z,12.85
2022-08-17T14:34:25.459Z,12.60
2022-08-17T14:36:52.326Z,12.30
2022-08-17T14:39:19.448Z,11.63
2022-08-17T14:41:46.329Z,11.68
2022-08-17T14:44:13.221Z,12.27
2022-08-17T14:46:41.213Z,11.48
2022-08-17T14:49:10.767Z,12.10
2022-08-17T14:51:43.869Z,11.27
2022-08-17T14:54:28.755Z,11.25
2022-08-17T14:57:11.523Z,12.88
2022-08-17T14:59:45.172Z,11.30
2022-08-17T15:02:12.964Z,11.95
2022-08-17T15:04:44.892Z,11.63
2022-08-17T15:07:11.894Z,11.55
2022-08-17T15:09:39.049Z,12.55
2022-08-17T15:12:06.671Z,13.13
2022-08-17T15:14:34.304Z,13.25
2022-08-17T15:17:02.082Z,12.02
2022-08-17T15:19:28.540Z,12.65
2022-08-17T15:21:54.998Z,11.85
2022-08-17T15:24:21.422Z,11.88
2022-08-17T15:26:47.967Z,12.00
2022-08-17T15:29:14.627Z,14.60
2022-08-17T15:31:41.136Z,12.23
2022-08-17T15:34:08.128Z,11.38
2022-08-17T15:36:35.823Z,11.95
2022-08-17T15:39:03.116Z,12.20
2022-08-17T15:41:29.874Z,11.73
2022-08-17T15:43:56.439Z,10.98
2022-08-17T15:46:25.607Z,13.13
2022-08-17T15:48:56.552Z,14.57
2022-08-17T15:51:32.018Z,12.00
2022-08-17T15:54:18.767Z,14.43
2022-08-17T15:56:49.210Z,12.05
2022-08-17T15:59:15.747Z,13.57
2022-08-17T16:03:01.359Z,12.52
2022-08-17T16:04:30.811Z,13.18
2022-08-17T16:06:58.685Z,12.93
2022-08-17T16:09:25.096Z,14.75
2022-08-17T16:11:52.170Z,13.30
2022-08-17T16:14:22.328Z,17.90
2022-08-17T16:16:49.633Z,13.80
2022-08-17T16:19:16.210Z,16.00
2022-08-17T16:21:43.349Z,13.63
2022-08-17T16:24:13.344Z,13.52
2022-08-17T16:26:40.435Z,13.38
2022-08-17T16:29:07.768Z,14.07
2022-08-17T16:31:36.072Z,13.52
2022-08-17T16:34:17.176Z,14.32
2022-08-17T16:36:51.836Z,14.13
2022-08-17T16:39:22.538Z,13.38
2022-08-17T16:41:50.234Z,20.42
2022-08-17T16:44:19.834Z,17.30
2022-08-17T16:49:35.574Z,16.92
2022-08-17T16:52:03.118Z,15.02
2022-08-17T16:54:29.570Z,14.05
2022-08-17T16:56:56.006Z,22.25
2022-08-17T16:59:38.744Z,14.18
2022-08-17T17:02:12.546Z,15.90
2022-08-17T17:04:47.988Z,15.48
2022-08-17T17:07:34.133Z,13.65
2022-08-17T17:10:14.683Z,13.10
2022-08-17T17:13:03.267Z,13.88
2022-08-17T17:15:46.146Z,13.70
2022-08-17T17:18:15.325Z,12.63
2022-08-17T17:20:58.227Z,16.52
2022-08-17T17:23:37.112Z,16.20
2022-08-17T17:26:14.041Z,12.93
2022-08-17T17:28:46.315Z,12.88
2022-08-17T17:31:18.053Z,12.65
2022-08-17T17:33:52.515Z,14.60
2022-08-17T17:36:41.884Z,15.68
2022-08-17T17:39:43.900Z,14.90
2022-08-17T17:42:14.476Z,14.25
2022-08-17T17:45:12.410Z,13.88
2022-08-17T17:47:38.911Z,19.15
2022-08-17T17:50:07.205Z,13.90
2022-08-17T17:52:36.526Z,13.30
2022-08-17T17:55:30.902Z,14.57
2022-08-17T17:58:20.700Z,14.80
2022-08-17T18:01:05.199Z,14.30
2022-08-17T18:03:52.966Z,15.20
2022-08-17T18:06:58.047Z,14.05
2022-08-17T18:09:39.491Z,14.35
2022-08-17T18:12:15.928Z,13.95
2022-08-17T18:14:58.278Z,13.50
2022-08-17T18:17:24.737Z,14.60
2022-08-17T18:19:55.281Z,15.32
2022-08-17T18:22:23.545Z,14.10
2022-08-17T18:24:55.841Z,13.95
2022-08-17T18:27:34.597Z,14.07
2022-08-17T18:30:12.473Z,14.65
2022-08-17T18:32:43.693Z,14.07
2022-08-17T18:35:10.207Z,15.68
2022-08-17T18:37:51.797Z,21.58
2022-08-17T18:40:19.455Z,12.90
2022-08-17T18:42:54.871Z,13.90
2022-08-17T18:45:35.896Z,13.68
2022-08-17T18:48:02.924Z,13.27
2022-08-17T18:50:42.171Z,20.60
2022-08-17T18:53:34.178Z,29.45
2022-08-17T18:56:33.374Z,31.00
2022-08-17T18:59:05.588Z,31.95
2022-08-17T19:01:59.985Z,33.15
2022-08-17T19:04:33.360Z,33.45
2022-08-17T19:07:26.249Z,36.13
2022-08-17T19:09:58.246Z,34.92
2022-08-17T19:12:27.131Z,35.92
2022-08-17T19:14:56.863Z,37.40
2022-08-17T19:17:51.153Z,38.28
2022-08-17T19:20:22.621Z,39.08
2022-08-17T19:23:10.801Z,40.45
2022-08-17T19:25:44.383Z,40.13
2022-08-17T19:28:22.254Z,41.38
2022-08-17T19:30:55.268Z,42.25
2022-08-17T19:33:22.134Z,41.90
2022-08-17T19:36:15.851Z,41.08
2022-08-17T19:38:53.004Z,43.63
2022-08-17T19:41:28.329Z,42.65
2022-08-17T19:44:32.148Z,43.15
2022-08-17T19:47:07.642Z,43.83
2022-08-17T19:50:10.639Z,43.20
2022-08-17T19:52:58.214Z,42.50
2022-08-17T19:55:38.771Z,43.75
2022-08-17T19:58:18.347Z,44.60
2022-08-17T20:00:51.255Z,43.10
2022-08-17T20:03:24.765Z,43.83
2022-08-17T20:06:12.560Z,43.42
2022-08-17T20:08:53.881Z,43.85
2022-08-17T20:11:27.867Z,43.38
2022-08-17T20:14:07.670Z,43.53
2022-08-17T20:16:34.242Z,43.22
2022-08-17T20:19:06.482Z,43.88
2022-08-17T20:21:59.542Z,43.20
2022-08-17T20:24:39.077Z,44.22
2022-08-17T20:27:18.310Z,44.30
2022-08-17T20:30:09.292Z,44.37
2022-08-17T20:32:53.362Z,42.95
2022-08-17T20:35:25.357Z,43.90
2022-08-17T20:37:56.437Z,44.53
2022-08-17T20:40:29.874Z,44.47
2022-08-17T20:42:57.157Z,44.55
2022-08-17T20:45:24.367Z,45.47
2022-08-17T20:48:22.127Z,44.65
2022-08-17T20:50:48.155Z,44.80
2022-08-17T20:53:57.675Z,44.15
2022-08-17T20:56:43.013Z,45.10
2022-08-17T20:59:25.767Z,47.53
2022-08-17T21:02:17.478Z,45.63
2022-08-17T21:04:51.256Z,44.88
2022-08-17T21:07:41.043Z,44.30
2022-08-17T21:10:25.567Z,44.42
2022-08-17T21:13:13.303Z,45.50
2022-08-17T21:15:56.087Z,44.35
2022-08-17T21:18:38.788Z,43.92
2022-08-17T21:21:25.894Z,43.72
2022-08-17T21:24:05.489Z,43.75
2022-08-17T21:26:38.960Z,44.78
2022-08-17T21:29:32.315Z,44.85
2022-08-17T21:32:03.374Z,43.13
2022-08-17T21:34:35.965Z,42.42
2022-08-17T21:37:22.009Z,43.60
2022-08-17T21:39:55.161Z,42.97
2022-08-17T21:42:32.442Z,43.13
2022-08-17T21:45:18.060Z,43.78
2022-08-17T21:47:49.918Z,43.63
2022-08-17T21:50:22.899Z,45.70
2022-08-17T21:52:53.941Z,43.47
2022-08-17T21:55:28.660Z,43.75
2022-08-17T21:58:13.552Z,43.75
2022-08-17T22:00:44.182Z,43.72
2022-08-17T22:03:24.267Z,44.65
2022-08-17T22:05:51.253Z,43.53
2022-08-17T22:08:20.962Z,44.40
2022-08-17T22:10:50.693Z,43.20
2022-08-17T22:13:17.691Z,42.60
2022-08-17T22:16:28.000Z,43.70
2022-08-17T22:18:58.488Z,42.22
2022-08-17T22:21:26.350Z,43.60
2022-08-17T22:24:18.066Z,42.33
2022-08-17T22:27:00.041Z,43.55
2022-08-17T22:29:57.019Z,42.42
2022-08-17T22:32:31.509Z,42.90
2022-08-17T22:35:32.656Z,43.05
2022-08-17T22:38:20.719Z,41.58
2022-08-17T22:40:57.466Z,42.25
2022-08-17T22:43:28.399Z,41.58
2022-08-17T22:45:58.982Z,42.65
2022-08-17T22:48:28.063Z,40.92
2022-08-17T22:51:12.325Z,42.05
2022-08-17T22:54:06.215Z,42.08
2022-08-17T22:56:51.558Z,41.30
2022-08-17T22:59:49.426Z,41.92
2022-08-17T23:02:19.473Z,41.90
2022-08-17T23:07:18.984Z,41.35
2022-08-17T23:09:45.822Z,40.38
2022-08-17T23:12:16.537Z,41.60
2022-08-17T23:14:45.636Z,42.80
2022-08-17T23:17:16.308Z,41.30
2022-08-17T23:19:43.114Z,41.95
2022-08-17T23:22:10.600Z,43.33
2022-08-17T23:24:45.974Z,41.72
2022-08-17T23:27:12.774Z,41.85
2022-08-17T23:29:41.993Z,42.80
2022-08-17T23:32:14.581Z,42.43
2022-08-17T23:34:43.761Z,42.13
2022-08-17T23:37:12.043Z,42.05
2022-08-17T23:39:39.683Z,43.05
2022-08-17T23:42:14.980Z,42.72
2022-08-17T23:44:43.665Z,43.05
2022-08-17T23:47:11.131Z,42.05
2022-08-17T23:49:38.663Z,41.60
2022-08-17T23:52:07.846Z,41.75
2022-08-17T23:54:41.413Z,40.35
2022-08-17T23:57:09.153Z,41.97
2022-08-17T23:59:37.185Z,39.83
